KNMI Weerbulletins

Hier vind u de KMNI verwachtingen en de waarnemingen

Bron: KNMI website
Laatste update op 13-12-2017 om 19:47
ZCZC
FBNL50 EHDB 131458
WEERBULLETIN VOOR DE LUCHTVAART - COR
.
GELDIG 131500/132100 UTC
.
SITUATIE: EEN N-Z GEORIENTEERDE OCCLUSIE BEREIKT HALVERWEGE DE
PERIODE HET WESTEN, TREKT NOORDOOSTWAARTS EN LIGT AAN HET EINDE VAN
DE PERIODE BOVEN HET MIDDEN. DE STROMING IS ZUIDWESTELIJK EN DE
OPBOUW IS ONSTABIEL TOT ONGEVEER 5000 VT, LOKAAL TOT BOVEN FL100.
.
SIGNIFICANT WEER: OOST VAN DE OCCLUSIE LOKAAL LICHTE BUIIGE REGEN. IN
BEWOLKING BOVEN HET NULGRADENNIVEAU MATIGE IJSAANZETTING. BIJ DE
OCCLUSIE MATIGE (BUIIGE) REGEN MET EEN KLEINE KANS OP ONWEER. IN DE
KUSTGEBIEDEN EN BIJ DE OCCLUSIE OOK  LANDINWAARTS, MATIGE
TURBULENTIE.
.
WIND: ZUIDWEST 10-15 KN, LANGS DE KUST 15-20 KN. BIJ DE OCCLUSIE
TOENEMEND NAAR 13-18 KN, IN DE KUSTPROVINCIES EN IN HET ZUIDOOSTEN
TOENEMEND NAAR 18-22 KN, LANGS DE KUST EN BOVEN HET IJSSELMEER 25-30
KN. VERDER UITSCHIETERS 10 KN BOVEN DE GEMIDDELDE WIND.
.
BEWOLKING: BKN/OVC SC/CU 1500-3000 VT, IN NEERSLAG LOKAAL BKN ST
500-1000 VT, IN HET OOSTEN MOGELIJK BENEDEN 500 VT. TOPPEN CA. 5000
VT. BIJ DE OCCLUSIE BKN/OVC ST 500-1000 VT EN LOKAAL BKN ST BENEDEN
500 VT. GELAAGD TOT BOVEN FL100. BIJ EEN BUI FEW/SCT CB ROND 1500 VT,
TOPPEN BOVEN FL100. WEST VAN DE OCCLUSIE SCT, LCA BKN SC/CU 1500-3000
VT, TOPPEN 4000 VT.
.
ZICHT: MEER DAN 10 KM. IN NEERSLAG 5-8 KM, LOKAAL 3-5 KM.
.
NULGRADEN NIVEAU: 3000-4000 VT. WEST VAN DE OCCLUSIE 2000-3000 VT.
.
HOOGTEWINDEN EN TEMPERATUREN:
       15 UTC:       21 UTC:
0500VT 210/20-25 +05 210-270/30-35 +06
1500VT 230/30-35 +03 210-270/40-50 +03
3000VT 240/30-40 -00 210-280/45-55 -00
FL 050 250/30-40 -02 220-280/40-60 -02
FL 100 260/30-45 -11 240-270/40-60 -13
HOOGSTE WINDSNELHEDEN IN HET ZUIDEN EN BIJ DE OCCLUSIE. OM 21 UTC
MEEST GERUIMDE WIND WEST VAN DE OCCLUSIE.
.
.
THERMIEK: -
.
VOORUITZICHTEN VOOR MORGEN: IN EEN WEST TOT ZUIDWESTELIJKE STROMING
PASSEREN MORGEN MEERDERE TROGGEN VAN WEST NAAR OOST HET LAND. HIERBIJ
BUIEN MET REGEN, HAGEL, NATTE SNEEUW EN MOGELIJK ONWEER EN VOORAL IN
HET OOSTEN  STRATUS.
.
DAGLICHTPERIODE: 07.25 TOT 15.43 UTC.=
NNNN
Bron: KNMI website
Laatste update op 13-12-2017 om 19:47
ZCZC
FC131600 EHWO     WOENSDRECHT/WOENSDRECHT   NLD   19 m.
TAF EHWO 131600Z NIL=
ZCZC
FC131600 EHGR RRD GILZE-RIJEN/GILZE-RIJEN   NLD   14 m.
TAF EHGR 131636Z 1318/1406 21010KT 9999 SCT008 BKN010 BKN020
    TEMPO 1418/1422 23015G25KT 4000 -SHRA -RA FEW005 BKN006
    SCT016CB
    PROB30 TEMPO 1318/1321 26020G35KT 3000 TSRAGS SCT004
    BKN006 SCT015CB
    BECMG 1320/1322 23010G20KT SCT020
    TEMPO 1400/1406 23015G25KT 4000 SHRAG FEW012 SCT018CB
    PROB30 TEMPO 1401/1404 25015G30KT 2500 SHRASN TSRAGS
    BKN006 SCT016CB BKN020=
ZCZC
FC131600 EHVK RRB VOLKEL/VOLKEL   NLD   21 m.
TAF EHVK 131656Z 1318/1406 21010KT 9999 SCT008 BKN010 BKN020
    TEMPO 1418/1422 23015G25KT 4000 -RA -SHRA FEW005 BKN006
    BKN012 SCT016CB
    PROB30 TEMPO 1319/1321 26020G35KT 3000 TSRAGS SCT004
    BKN006 SCT015CB
    BECMG 1321/1323 23010G20KT SCT020
    TEMPO 1401/1406 23015G25KT 4000 SHRAG FEW012 SCT018CB
    PROB30 TEMPO 1402/1404 25015G30KT 2500 SHRASN TSRAGS
    BKN006 SCT016CB BKN020=
ZCZC
FC131600 EHLW RRE LEEUWARDEN/LEEUWARDEN   NLD   1 m.
TAF EHLW 131652Z 1318/1406 22014KT 9999 BKN003 BKN060
    BECMG 1318/1320 20020G30KT -RA SCT012 OVC020
    TEMPO 1319/1322 24023G34KT 4500 SHRA RA BKN010 SCT015CB
    BKN020
    PROB30 TEMPO 1319/1322 27025G35KT 3000 TSRA FEW006 SCT008
    SCT012CB
    BECMG 1322/1323 27018G28KT SCT018
    TEMPO 1400/1406 23018G30KT 4000 SHRAG FEW012 SCT018CB
    PROB30 TEMPO 1402/1406 25020G35KT 2500 SHRASN TSRAGS
    BKN006 SCT016CB BKN020=
ZCZC
FT131700 EHAM     AMSTERDAM/SCHIPHOL   NLD   -3 m.
TAF EHAM 131709Z 1318/1424 19015G25KT 9999 BKN025
    PROB40 TEMPO 1318/1320 6000 -SHRA RA BKN008 BKN013 FEW020CB
    BECMG 1318/1321 27015G25KT
    BECMG 1322/1401 24015KT
    TEMPO 1400/1412 27020G30KT 3500 SHRA TSRAGS SCT018CB
    BKN020
    BECMG 1412/1415 20013KT
    PROB30 TEMPO 1412/1420 4500 TSRAGS SCT020CB SCT030=
ZCZC
FT131700 EHBK     MAASTRICHT/MAASTRICHT-AACHEN   NLD   114 m.
TAF EHBK 131710Z 1318/1424 20015G27KT 7000 -RA SCT012 BKN018
    BECMG 1318/1321 24022G35KT
    PROB40 TEMPO 1318/1323 24025G40KT 4000 RA SHRA SCT008
    BKN012 SCT015CB
    BECMG 1321/1324 22012KT 9999 NSW
    BECMG 1400/1403 25018G28KT
    TEMPO 1402/1412 25022G32KT 4000 RA SHRASNGS BKN006 SCT015CB
    PROB30 TEMPO 1402/1406 25025G40KT 2000 TSSNRA BKN003
    BKN012CB
    BECMG 1409/1412 22014KT
    PROB40 TEMPO 1415/1424 6000 -RADZ BKN008=
ZCZC
FT131700 EHRD     ROTTERDAM/THE HAGUE AIRPORT   NLD   -5 m.
TAF EHRD 131709Z 1318/1424 19015G25KT 9999 BKN025
    PROB40 TEMPO 1318/1320 6000 -SHRA RA BKN013 FEW020CB
    BECMG 1318/1321 27015G25KT
    BECMG 1322/1401 24015KT
    TEMPO 1400/1412 27020G30KT 3500 SHRA TSRAGS SCT018CB
    BKN020
    BECMG 1412/1415 20013KT
    PROB30 TEMPO 1412/1420 4500 TSRAGS SCT020CB SCT030=
ZCZC
FT131700 EHGG CCA GRONINGEN/EELDE   NLD   5 m.
TAF COR EHGG 131740Z 1318/1424 18013KT 6000 -RADZ BKN006
    TEMPO 1318/1324 18018G30KT 3000 SHRAGS RADZ BKN004 SCT012CB
    BECMG 1321/1324 26013G23KT 9999 NSW SCT020
    TEMPO 1403/1415 4000 SHSNRAGS RASN BKN008 SCT018CB
    PROB30 TEMPO 1403/1412 25017G27KT 2000 TSSNRA BKN003
    BKN012CB
    PROB30 TEMPO 1412/1420 6000 SHRA SCT015CB BKN020
    BECMG 1415/1418 22012KT BKN008
    PROB30 TEMPO 1416/1424 4000 -DZ BKN004=
ZCZC
FT131700 EHEH     EINDHOVEN/EINDHOVEN   NLD   22 m.
TAF EHEH 131708Z 1318/1424 21010KT 9999 SCT008 BKN010 BKN020
    TEMPO 1418/1422 23015G25KT 4000 -RA -SHRA FEW005 BKN006
    BKN012 SCT016CB
    PROB30 TEMPO 1319/1321 26020G35KT 3000 TSRAGS SCT004
    BKN006 SCT015CB
    BECMG 1321/1323 23010G20KT SCT020
    TEMPO 1401/1421 23015G25KT 4000 SHRA SCT008 SCT018CB
    PROB30 TEMPO 1402/1405 25015G30KT 2500 SHRASN TSRAGS
    BKN006 SCT016CB BKN020
    PROB30 1422/1424 4000 BR BKN004=
ZCZC
FC131800 EHKD     DE KOOY/DE KOOY   NLD   1 m.
TAF EHKD 131645Z 1318/1406 23018KT 9999 -RA SCT012 OVC020
    TEMPO 1319/1322 24028G38KT 4500 SHRA RA BKN010 SCT015CB
    BKN020
    PROB30 TEMPO 1319/1322 27030G40KT 3000 TSRA FEW006 SCT008
    SCT012CB
    BECMG 1321/1322 27020G35KT SCT018
    TEMPO 1400/1406 23022G40KT 4000 SHRA FEW012 SCT018CB
    PROB30 TEMPO 1402/1406 25024G42KT 2500 SHRASN TSRAGS
    BKN006 SCT016CB BKN020=
Bron: KNMI website
Laatste update op 13-12-2017 om 19:47
ZCZC
SA131825 EHKD     DE KOOY/DE KOOY   NLD   1 m.
METAR EHKD 131825Z AUTO 18014KT 150V210 5000 -SHRA SCT005 BKN006
BKN009 FEW015CB 06/05 Q0985
YLO 22018KT 7000 -RA FEW007 SCT008 BKN016=
ZCZC
SA131825 EHFD     F3-FB-1   NLD   50 m.
METAR EHFD 131825Z AUTO ///29KT 4900 RA FEW009/// SCT012/// BKN017///
07/05 Q0981 W///H///=
ZCZC
SA131825 EHAM     AMSTERDAM/SCHIPHOL   NLD   -3 m.
METAR EHAM 131825Z 17017KT 4500 -DZRA SCT004 BKN007 OVC010 05/04
Q0986 TEMPO 2500 SHRA BKN006 SCT010CB BECMG FM1915 25020G33KT 9999
SCT020=
ZCZC
SA131825 EHVL     VLIELAND   NLD   10 m.
METAR EHVL 131825Z AUTO 18018KT 3500 RA FEW001 BKN004 BKN008 FEW015CB
05/05 Q0984 YLO=
ZCZC
SA131825 EHJR     K13-A   NLD   37 m.
METAR EHJR 131825Z AUTO 30028KT //// // ///////// 06/01 Q0984 RE//
W08/H26=
ZCZC
SA131825 EHLW     LEEUWARDEN/LEEUWARDEN   NLD   1 m.
METAR EHLW 131825Z AUTO 19014G24KT 150V240 8000 BR SCT005 BKN006
FEW015CB 05/05 Q0986 REDZ YLO=
ZCZC
SA131825 EHDL     ARNHEM/DEELEN   NLD   48 m.
METAR EHDL 131825Z AUTO 18014KT 130V220 7000 -RA FEW004 BKN005 BKN007
SCT015CB 04/04 Q0989 RERA REDZ YLO=
ZCZC
SA131825 EHGG     GRONINGEN/EELDE   NLD   5 m.
METAR EHGG 131825Z AUTO 19014KT 150V220 7000 SCT006 BKN007 OVC008
04/04 Q0988 TEMPO 4000 BR BKN004=
ZCZC
SA131825 EHSC     LICHTEILAND GOEREE   NLD   22 m.
METAR EHSC 131825Z AUTO 22035KT 6000 -RA ///////// 08/07 Q0986 RERA
REDZ W08/H16=
ZCZC
SA131825 EHSA     EURO PLATFORM   NLD   19 m.
METAR EHSA 131825Z AUTO 23023KT 9999 -DZ ///////// 08/05 Q0986
W09/H20=
ZCZC
SA131825 EHWO     WOENSDRECHT/WOENSDRECHT   NLD   19 m.
METAR EHWO 131825Z AUTO 22012KT 160V250 9999 RA FEW007 SCT008
BKN015CB 07/06 Q0988 GRN=
ZCZC
SA131825 EHRD     ROTTERDAM/THE HAGUE AIRPORT   NLD   -5 m.
METAR EHRD 131825Z AUTO 20019G29KT 160V230 9999 FEW008 SCT009 BKN010
BKN015CB 07/06 Q0987 TEMPO 4500 SHRA BECMG 24020KT BKN020=
ZCZC
SA131825 EHGR     GILZE-RIJEN/GILZE-RIJEN   NLD   14 m.
METAR EHGR 131825Z AUTO 20013KT 130V250 7000 SHRA FEW005 SCT006
BKN007 SCT015CB 06/06 Q0989
BLACKYLO 19013KT 4000 -RADZ FEW005 SCT007 BKN009 TEMPO 6000 -RA
BKN010 OVC015=
ZCZC
SA131825 EHEH     EINDHOVEN/EINDHOVEN   NLD   22 m.
METAR EHEH 131825Z AUTO 18012KT 7000 -SHRA FEW005 BKN006 BKN008
FEW015CB 06/05 Q0990 REDZ
YLO 20014KT 9999 -RADZ FEW008 SCT025 BKN035 TEMPO 23015G25KT 4000
SHRA RADZ SCT006 BKN007 BKN012 FEW015CB=
ZCZC
SA131825 EHVK     VOLKEL/VOLKEL   NLD   21 m.
METAR EHVK 131825Z AUTO 19013KT 150V240 9999 +DZ FEW006 SCT007 BKN008
FEW015CB 06/05 Q0990
GRN 19013KT 9999 SCT006 BKN007 TEMPO 22015G25KT 3000 SHRAGS SCT005
BKN007 SCT015CB=
ZCZC
SA131825 EHBK     MAASTRICHT/MAASTRICHT-AACHEN   NLD   114 m.
METAR EHBK 131825Z AUTO 19019KT 160V220 9999 FEW015CB OVC025 06/05
Q0992 REDZ TEMPO 6000 -RADZ BKN012=
ZCZC
SA131825 EHFZ     F16-A   NLD   43 m.
METAR EHFZ 131825Z AUTO 25021KT 3700 -RA FEW005 SCT011 BKN021 06/05
Q0982 W///H///=
ZCZC
SA131825 EHKV     K14-FA-1C   NLD   41 m.
METAR EHKV 131825Z AUTO 27037KT 9000 -RA FEW008 SCT013 FEW015CB
BKN020 06/05 Q0984 W///H///=
ZCZC
SA131825 EHMG     L9-FF-1   NLD   44 m.
METAR EHMG 131825Z AUTO 20032KT 7000 -RA FEW005 SCT010 FEW015CB
BKN019 07/06 Q0983 W///H///=
ZCZC
SA131825 EHMA     AWG-1   NLD   40 m.
METAR EHMA 131825Z AUTO 20029KT 7000 SCT004 OVC005 05/04 Q0985
W///H///=
ZCZC
SA131825 EHDV     D15-FA-1   NLD   42 m.
METAR EHDV 131825Z AUTO 28024KT 9999 FEW008/// SCT020/// BKN029///
07/03 Q0982 W///H///=
ZCZC
SA131825 EHAK     A12-CPP   NLD   48 m.
METAR EHAK 131825Z AUTO 24023KT 9999 FEW010/// SCT012/// BKN018///
06/04 Q0980 W///H///=
ZCZC
SA131825 EHQE     HOORN-A   NLD   50 m.
METAR EHQE 131825Z AUTO 18028KT 9999 -RA FEW005 SCT013 FEW015CB
BKN019 08/07 Q0984 RERA REDZ W///H///=
ZCZC
SA131825 EHJA     J6-A   NLD   45 m.
METAR EHJA 131825Z AUTO 28029KT 9999 -RA FEW011/// SCT014///
BKN020/// 07/03 Q0982 W///H///=
ZCZC
SA131825 EHPG     P11-B   NLD   41 m.
METAR EHPG 131825Z AUTO 25034KT 210V300 3600 -RA FEW005 SCT010
SCT015CB BKN028 08/07 Q0984 RETSRA W///H///=
ZCZC
SA131825 EHHW     BUITENGAATS/BG-OHVS2      42 m.
METAR EHHW 131825Z AUTO 21028KT //// // ///////// 07/05 Q0985 RE//
W///H///=
ZCZC
SA131825 EHFS     VLISSINGEN AWS   NLD   8 m.
METAR EHFS 131825Z AUTO 22023KT 9999 BKN016/// OVC020/// 07/06 Q0987
W///H///=